createdAt,value
2023-01-25T00:01:16.409Z,5.49
2023-01-25T00:03:44.533Z,5.50
2023-01-25T00:06:12.743Z,5.49
2023-01-25T00:08:41.022Z,5.50
2023-01-25T00:11:09.385Z,5.51
2023-01-25T00:13:39.872Z,5.53
2023-01-25T00:16:11.500Z,5.54
2023-01-25T00:18:39.831Z,5.56
2023-01-25T00:21:37.863Z,5.59
2023-01-25T00:24:06.502Z,5.57
2023-01-25T00:26:36.058Z,5.60
2023-01-25T00:29:04.495Z,5.60
2023-01-25T00:31:42.478Z,5.61
2023-01-25T00:34:26.318Z,5.63
2023-01-25T00:37:14.978Z,5.62
2023-01-25T00:39:44.122Z,5.58
2023-01-25T00:42:15.198Z,5.63
2023-01-25T00:44:46.811Z,5.63
2023-01-25T00:47:16.170Z,5.65
2023-01-25T00:49:45.668Z,5.66
2023-01-25T00:52:14.823Z,5.67
2023-01-25T00:54:43.318Z,5.62
2023-01-25T00:57:11.588Z,5.69
2023-01-25T00:59:44.602Z,5.69
2023-01-25T01:02:13.884Z,5.69
2023-01-25T01:04:42.218Z,5.66
2023-01-25T01:07:14.048Z,5.61
2023-01-25T01:09:42.276Z,5.59
2023-01-25T01:12:10.587Z,5.61
2023-01-25T01:14:39.246Z,5.62
2023-01-25T01:17:07.517Z,5.56
2023-01-25T01:19:35.795Z,5.62
2023-01-25T01:22:04.274Z,5.63
2023-01-25T01:24:32.639Z,5.63
2023-01-25T01:27:00.826Z,5.63
2023-01-25T01:29:29.072Z,5.55
2023-01-25T01:31:57.660Z,5.62
2023-01-25T01:34:27.496Z,5.59
2023-01-25T01:36:56.296Z,5.51
2023-01-25T01:39:25.158Z,5.48
2023-01-25T01:41:53.778Z,5.39
2023-01-25T01:44:42.588Z,5.44
2023-01-25T01:47:20.945Z,5.43
2023-01-25T01:49:58.147Z,5.44
2023-01-25T01:52:31.640Z,5.45
2023-01-25T01:55:08.780Z,5.46
2023-01-25T01:57:44.979Z,5.46
2023-01-25T02:00:20.941Z,5.48
2023-01-25T02:02:50.969Z,5.46
2023-01-25T02:05:36.128Z,5.49
2023-01-25T02:08:07.996Z,5.49
2023-01-25T02:10:37.367Z,5.50
2023-01-25T02:13:05.872Z,5.51
2023-01-25T02:15:41.303Z,5.50
2023-01-25T02:18:11.729Z,5.49
2023-01-25T02:20:54.547Z,5.51
2023-01-25T02:23:29.890Z,5.52
2023-01-25T02:26:01.854Z,5.51
2023-01-25T02:28:47.021Z,5.50
2023-01-25T02:31:16.481Z,5.48
2023-01-25T02:33:44.913Z,5.46
2023-01-25T02:36:21.889Z,5.39
2023-01-25T02:38:58.159Z,5.36
2023-01-25T02:41:44.144Z,5.27
2023-01-25T02:44:21.595Z,5.20
2023-01-25T02:46:52.174Z,5.15
2023-01-25T02:49:21.353Z,5.15
2023-01-25T02:51:56.082Z,5.17
2023-01-25T02:54:28.462Z,5.20
2023-01-25T02:56:57.757Z,5.20
2023-01-25T02:59:27.154Z,5.21
2023-01-25T03:01:57.058Z,5.23
2023-01-25T03:04:25.669Z,5.23
2023-01-25T03:06:54.050Z,5.24
2023-01-25T03:09:22.256Z,5.27
2023-01-25T03:11:51.008Z,5.29
2023-01-25T03:14:20.193Z,5.31
2023-01-25T03:16:48.375Z,5.35
2023-01-25T03:19:17.260Z,5.37
2023-01-25T03:21:46.867Z,5.37
2023-01-25T03:24:15.623Z,5.40
2023-01-25T03:27:06.480Z,5.41
2023-01-25T03:29:41.804Z,5.42
2023-01-25T03:32:14.100Z,5.41
2023-01-25T03:34:42.671Z,5.42
2023-01-25T03:37:11.870Z,5.43
2023-01-25T03:39:41.268Z,5.41
2023-01-25T03:42:10.601Z,5.42
2023-01-25T03:44:38.955Z,5.40
2023-01-25T03:49:49.830Z,5.38
2023-01-25T03:52:19.622Z,5.37
2023-01-25T03:54:48.230Z,5.40
2023-01-25T03:57:16.510Z,5.39
2023-01-25T04:00:04.746Z,5.39
2023-01-25T04:02:43.416Z,5.41
2023-01-25T04:05:13.997Z,5.43
2023-01-25T04:07:42.890Z,5.41
2023-01-25T04:10:11.276Z,5.40
2023-01-25T04:12:42.225Z,5.39
2023-01-25T04:15:11.244Z,5.35
2023-01-25T04:17:40.679Z,5.34
2023-01-25T04:20:29.162Z,5.30
2023-01-25T04:22:58.060Z,5.29
2023-01-25T04:25:31.231Z,5.30
2023-01-25T04:28:00.222Z,5.30
2023-01-25T04:30:28.503Z,5.31
2023-01-25T04:32:56.792Z,5.30
2023-01-25T04:35:28.052Z,5.27
2023-01-25T04:37:58.282Z,5.20
2023-01-25T04:40:28.380Z,5.26
2023-01-25T04:42:57.593Z,5.26
2023-01-25T04:45:26.078Z,5.29
2023-01-25T04:48:03.663Z,5.30
2023-01-25T04:50:33.531Z,5.32
2023-01-25T04:53:02.245Z,5.31
2023-01-25T04:55:33.359Z,5.25
2023-01-25T04:58:02.892Z,5.28
2023-01-25T05:00:32.559Z,5.28
2023-01-25T05:03:01.506Z,5.28
2023-01-25T05:05:29.983Z,5.27
2023-01-25T05:08:02.364Z,5.26
2023-01-25T05:10:30.826Z,5.23
2023-01-25T05:13:17.944Z,5.22
2023-01-25T05:15:47.033Z,5.23
2023-01-25T05:18:15.334Z,5.23
2023-01-25T05:20:43.912Z,5.22
2023-01-25T05:23:12.787Z,5.13
2023-01-25T05:25:59.717Z,5.11
2023-01-25T05:28:30.545Z,5.04
2023-01-25T05:31:09.312Z,5.01
2023-01-25T05:33:37.757Z,5.00
2023-01-25T05:36:06.488Z,4.97
2023-01-25T05:38:35.936Z,4.97
2023-01-25T05:41:04.159Z,4.98
2023-01-25T05:43:32.704Z,4.96
2023-01-25T05:46:03.138Z,5.00
2023-01-25T05:48:33.456Z,5.02
2023-01-25T05:51:01.934Z,5.01
2023-01-25T05:53:30.565Z,4.95
2023-01-25T05:56:10.325Z,4.91
2023-01-25T05:58:39.668Z,4.92
2023-01-25T06:01:08.367Z,4.94
2023-01-25T06:03:46.458Z,4.95
2023-01-25T06:06:15.603Z,4.95
2023-01-25T06:08:44.748Z,4.97
2023-01-25T06:11:18.896Z,4.99
2023-01-25T06:13:48.979Z,4.99
2023-01-25T06:16:18.863Z,4.97
2023-01-25T06:19:13.712Z,4.98
2023-01-25T06:22:00.301Z,4.92
2023-01-25T06:24:28.496Z,4.88
2023-01-25T06:26:56.863Z,4.83
2023-01-25T06:29:25.065Z,4.77
2023-01-25T06:31:53.536Z,4.75
2023-01-25T06:34:22.974Z,4.73
2023-01-25T06:36:51.326Z,4.68
2023-01-25T06:39:19.662Z,4.65
2023-01-25T06:41:47.943Z,4.61
2023-01-25T06:44:16.275Z,4.57
2023-01-25T06:46:44.663Z,4.50
2023-01-25T06:49:13.181Z,4.60
2023-01-25T06:51:41.457Z,4.65
2023-01-25T06:54:09.852Z,4.70
2023-01-25T06:56:38.321Z,4.74
2023-01-25T06:59:06.696Z,4.79
2023-01-25T07:01:35.221Z,4.84
2023-01-25T07:04:04.073Z,4.88
2023-01-25T07:06:36.442Z,4.92
2023-01-25T07:09:10.775Z,4.93
2023-01-25T07:11:40.484Z,4.90
2023-01-25T07:14:08.963Z,4.83
2023-01-25T07:16:37.359Z,4.79
2023-01-25T07:19:08.071Z,4.77
2023-01-25T07:21:36.645Z,4.76
2023-01-25T07:24:06.310Z,4.76
2023-01-25T07:26:34.839Z,4.75
2023-01-25T07:29:03.220Z,4.74
2023-01-25T07:31:31.970Z,4.79
2023-01-25T07:34:00.508Z,4.83
2023-01-25T07:36:29.076Z,4.88
2023-01-25T07:38:59.057Z,4.93
2023-01-25T07:41:27.993Z,4.96
2023-01-25T07:43:56.775Z,5.00
2023-01-25T07:46:38.768Z,4.97
2023-01-25T07:49:07.186Z,4.96
2023-01-25T07:51:35.425Z,4.94
2023-01-25T07:54:05.359Z,4.91
2023-01-25T07:56:38.726Z,4.78
2023-01-25T07:59:10.005Z,4.86
2023-01-25T08:01:39.797Z,4.82
2023-01-25T08:04:08.700Z,4.75
2023-01-25T08:06:41.290Z,4.69
2023-01-25T08:09:17.492Z,4.66
2023-01-25T08:11:46.724Z,4.63
2023-01-25T08:14:15.513Z,4.64
2023-01-25T08:16:43.985Z,4.64
2023-01-25T08:19:12.783Z,4.66
2023-01-25T08:21:41.176Z,4.68
2023-01-25T08:24:09.827Z,4.69
2023-01-25T08:26:38.529Z,4.70
2023-01-25T08:29:07.228Z,4.71
2023-01-25T08:31:36.935Z,4.70
2023-01-25T08:34:07.021Z,4.71
2023-01-25T08:36:35.524Z,4.74
2023-01-25T08:39:07.192Z,4.73
2023-01-25T08:41:36.391Z,4.71
2023-01-25T08:44:06.068Z,4.71
2023-01-25T08:46:34.586Z,4.76
2023-01-25T08:49:03.999Z,4.80
2023-01-25T08:51:34.001Z,4.84
2023-01-25T08:54:12.203Z,4.87
2023-01-25T08:56:41.610Z,4.96
2023-01-25T08:59:12.043Z,5.02
2023-01-25T09:01:40.612Z,5.05
2023-01-25T09:04:09.617Z,5.05
2023-01-25T09:06:38.610Z,5.05
2023-01-25T09:09:08.747Z,5.03
2023-01-25T09:11:38.374Z,5.00
2023-01-25T09:14:07.112Z,4.98
2023-01-25T09:16:36.008Z,4.85
2023-01-25T09:19:05.708Z,4.91
2023-01-25T09:21:35.142Z,4.98
2023-01-25T09:24:06.549Z,5.02
2023-01-25T09:26:39.266Z,5.05
2023-01-25T09:29:09.003Z,5.08
2023-01-25T09:31:44.191Z,5.12
2023-01-25T09:34:15.857Z,5.14
2023-01-25T09:36:44.543Z,5.12
2023-01-25T09:39:13.526Z,5.09
2023-01-25T09:42:20.484Z,5.07
2023-01-25T09:45:11.162Z,5.05
2023-01-25T09:47:48.406Z,5.05
2023-01-25T09:50:22.918Z,5.10
2023-01-25T09:53:11.278Z,5.13
2023-01-25T09:55:40.721Z,5.13
2023-01-25T09:58:19.913Z,4.99
2023-01-25T10:00:56.868Z,5.04
2023-01-25T10:03:55.472Z,5.01
2023-01-25T10:06:33.644Z,4.97
2023-01-25T10:09:53.672Z,4.95
2023-01-25T10:12:24.449Z,4.95
2023-01-25T10:14:54.514Z,4.97
2023-01-25T10:17:25.781Z,4.99
2023-01-25T10:20:16.070Z,4.98
2023-01-25T10:22:53.728Z,4.96
2023-01-25T10:25:25.126Z,4.94
2023-01-25T10:28:25.551Z,4.91
2023-01-25T10:31:00.988Z,4.89
2023-01-25T10:33:35.002Z,4.86
2023-01-25T10:36:06.255Z,4.85
2023-01-25T10:38:46.322Z,4.85
2023-01-25T10:41:48.043Z,4.85
2023-01-25T10:44:22.683Z,4.90
2023-01-25T10:47:13.296Z,4.96
2023-01-25T10:50:00.371Z,5.03
2023-01-25T10:52:33.328Z,5.08
2023-01-25T10:55:18.477Z,5.14
2023-01-25T10:57:53.313Z,5.15
2023-01-25T11:00:33.846Z,5.13
2023-01-25T11:03:02.144Z,5.17
2023-01-25T11:05:41.976Z,5.19
2023-01-25T11:08:32.915Z,5.21
2023-01-25T11:11:26.241Z,5.20
2023-01-25T11:13:55.553Z,5.27
2023-01-25T11:16:37.235Z,5.29
2023-01-25T11:19:36.140Z,5.31
2023-01-25T11:22:25.199Z,5.31
2023-01-25T11:24:53.674Z,5.30
2023-01-25T11:27:25.260Z,5.29
2023-01-25T11:30:06.217Z,5.32
2023-01-25T11:32:34.780Z,5.36
2023-01-25T11:35:03.580Z,5.39
2023-01-25T11:37:38.102Z,5.41
2023-01-25T11:40:34.537Z,5.39
2023-01-25T11:43:24.216Z,5.39
2023-01-25T11:46:14.512Z,5.42
2023-01-25T11:48:55.178Z,5.41
2023-01-25T11:51:29.991Z,5.42
2023-01-25T11:54:29.536Z,5.42
2023-01-25T11:56:58.598Z,5.44
2023-01-25T11:59:50.326Z,5.46
2023-01-25T12:02:56.538Z,5.46
2023-01-25T12:06:02.558Z,5.49
2023-01-25T12:08:51.318Z,5.48
2023-01-25T12:12:09.368Z,5.48
2023-01-25T12:15:09.589Z,5.51
2023-01-25T12:18:09.208Z,5.50
2023-01-25T12:20:54.923Z,5.52
2023-01-25T12:23:42.511Z,5.50
2023-01-25T12:26:34.748Z,5.45
2023-01-25T12:29:26.887Z,5.39
2023-01-25T12:31:55.286Z,5.37
2023-01-25T12:34:38.190Z,5.34
2023-01-25T12:37:19.787Z,5.33
2023-01-25T12:40:02.592Z,5.34
2023-01-25T12:42:56.970Z,5.35
2023-01-25T12:45:49.598Z,5.39
2023-01-25T12:48:24.153Z,5.39
2023-01-25T12:50:57.239Z,5.39
2023-01-25T12:53:42.081Z,5.42
2023-01-25T12:56:29.336Z,5.44
2023-01-25T12:59:07.205Z,5.48
2023-01-25T13:01:47.909Z,5.52
2023-01-25T13:04:50.374Z,5.57
2023-01-25T13:07:24.518Z,5.57
2023-01-25T13:10:07.181Z,5.58
2023-01-25T13:13:15.724Z,5.56
2023-01-25T13:15:46.892Z,5.54
2023-01-25T13:18:24.683Z,5.53
2023-01-25T13:21:05.126Z,5.53
2023-01-25T13:23:36.615Z,5.55
2023-01-25T13:26:26.461Z,5.58
2023-01-25T13:29:01.489Z,5.58
2023-01-25T13:31:55.949Z,5.53
2023-01-25T13:34:39.537Z,5.60
2023-01-25T13:37:26.153Z,5.58
2023-01-25T13:40:05.941Z,5.57
2023-01-25T13:42:37.158Z,5.58
2023-01-25T13:45:05.924Z,5.60
2023-01-25T13:47:42.566Z,5.60
2023-01-25T13:50:14.952Z,5.59
2023-01-25T13:52:57.073Z,5.55
2023-01-25T13:55:27.242Z,5.51
2023-01-25T13:58:11.903Z,5.48
2023-01-25T14:00:51.712Z,5.43
2023-01-25T14:03:25.176Z,5.38
2023-01-25T14:05:56.605Z,5.34
2023-01-25T14:08:26.851Z,5.30
2023-01-25T14:10:57.395Z,5.26
2023-01-25T14:13:26.278Z,5.24
2023-01-25T14:15:56.374Z,5.23
2023-01-25T14:18:38.648Z,5.24
2023-01-25T14:21:12.000Z,5.23
2023-01-25T14:23:40.682Z,5.23
2023-01-25T14:26:16.760Z,5.24
2023-01-25T14:29:02.298Z,5.27
2023-01-25T14:35:43.002Z,5.30
2023-01-25T14:38:31.376Z,5.27
2023-01-25T14:41:15.125Z,5.26
2023-01-25T14:43:51.437Z,5.24
2023-01-25T14:46:37.625Z,5.26
2023-01-25T14:49:25.718Z,5.30
2023-01-25T14:52:27.790Z,5.30
2023-01-25T14:55:00.584Z,5.27
2023-01-25T14:57:40.555Z,5.15
2023-01-25T15:00:19.651Z,5.27
2023-01-25T15:02:56.910Z,5.29
2023-01-25T15:05:28.061Z,5.33
2023-01-25T15:08:14.003Z,5.36
2023-01-25T15:10:52.417Z,5.33
2023-01-25T15:13:26.005Z,5.26
2023-01-25T15:15:58.423Z,5.23
2023-01-25T15:18:45.437Z,5.18
2023-01-25T15:21:19.427Z,5.13
2023-01-25T15:23:49.719Z,5.08
2023-01-25T15:26:27.434Z,5.06
2023-01-25T15:28:59.209Z,5.04
2023-01-25T15:31:37.882Z,4.96
2023-01-25T15:34:06.975Z,4.98
2023-01-25T15:36:35.857Z,4.93
2023-01-25T15:39:05.444Z,4.91
2023-01-25T15:41:34.597Z,4.87
2023-01-25T15:44:03.220Z,4.83
2023-01-25T15:46:33.943Z,4.80
2023-01-25T15:49:09.095Z,4.76
2023-01-25T15:51:37.975Z,4.73
2023-01-25T15:54:07.642Z,4.76
2023-01-25T15:56:38.126Z,4.77
2023-01-25T15:59:09.630Z,4.77
2023-01-25T16:01:38.563Z,4.72
2023-01-25T16:04:15.965Z,4.68
2023-01-25T16:06:53.204Z,4.63
2023-01-25T16:09:27.224Z,4.62
2023-01-25T16:12:04.677Z,4.62
2023-01-25T16:14:33.837Z,4.63
2023-01-25T16:17:05.915Z,4.61
2023-01-25T16:19:34.670Z,4.60
2023-01-25T16:22:03.378Z,4.56
2023-01-25T16:24:31.957Z,4.53
2023-01-25T16:27:01.666Z,4.50
2023-01-25T16:29:30.534Z,4.43
2023-01-25T16:32:00.073Z,4.52
2023-01-25T16:34:31.317Z,4.52
2023-01-25T16:37:02.480Z,4.53
2023-01-25T16:39:32.677Z,4.51
2023-01-25T16:42:01.730Z,4.45
2023-01-25T16:44:30.439Z,4.39
2023-01-25T16:46:59.841Z,4.35
2023-01-25T16:49:30.805Z,4.33
2023-01-25T16:52:02.623Z,4.33
2023-01-25T16:54:31.466Z,4.36
2023-01-25T16:57:08.683Z,4.35
2023-01-25T16:59:48.855Z,4.45
2023-01-25T17:02:18.302Z,4.44
2023-01-25T17:04:47.661Z,4.46
2023-01-25T17:07:18.113Z,4.48
2023-01-25T17:09:47.611Z,4.51
2023-01-25T17:12:17.043Z,4.52
2023-01-25T17:14:46.587Z,4.54
2023-01-25T17:17:15.275Z,4.56
2023-01-25T17:19:45.343Z,4.53
2023-01-25T17:22:16.554Z,4.52
2023-01-25T17:24:46.401Z,4.53
2023-01-25T17:27:17.024Z,4.55
2023-01-25T17:29:48.098Z,4.56
2023-01-25T17:32:21.620Z,4.57
2023-01-25T17:34:54.310Z,4.59
2023-01-25T17:37:23.918Z,4.60
2023-01-25T17:39:53.504Z,4.61
2023-01-25T17:42:22.997Z,4.60
2023-01-25T17:44:52.244Z,4.59
2023-01-25T17:47:21.517Z,4.58
2023-01-25T17:49:51.553Z,4.58
2023-01-25T17:52:21.941Z,4.55
2023-01-25T17:54:51.589Z,4.53
2023-01-25T17:57:24.250Z,4.52
2023-01-25T17:59:52.937Z,4.53
2023-01-25T18:02:22.248Z,4.55
2023-01-25T18:04:52.096Z,4.55
2023-01-25T18:07:22.565Z,4.54
2023-01-25T18:09:53.647Z,4.54
2023-01-25T18:12:23.775Z,4.53
2023-01-25T18:14:53.532Z,4.53
2023-01-25T18:17:22.852Z,4.57
2023-01-25T18:19:52.465Z,4.60
2023-01-25T18:22:21.483Z,4.61
2023-01-25T18:24:51.368Z,4.64
2023-01-25T18:27:24.999Z,4.64
2023-01-25T18:30:33.799Z,4.67
2023-01-25T18:33:04.063Z,4.66
2023-01-25T18:35:33.351Z,4.63
2023-01-25T18:38:04.872Z,4.59
2023-01-25T18:40:36.427Z,4.63
2023-01-25T18:43:06.273Z,4.64
2023-01-25T18:45:37.475Z,4.66
2023-01-25T18:48:10.518Z,4.67
2023-01-25T18:50:49.436Z,4.63
2023-01-25T18:53:21.937Z,4.59
2023-01-25T18:56:03.843Z,4.60
2023-01-25T18:58:36.038Z,4.62
2023-01-25T19:01:16.775Z,4.64
2023-01-25T19:03:50.437Z,4.64
2023-01-25T19:06:21.580Z,4.64
2023-01-25T19:08:54.604Z,4.62
2023-01-25T19:11:24.493Z,4.62
2023-01-25T19:13:56.639Z,4.64
2023-01-25T19:16:25.472Z,4.62
2023-01-25T19:18:55.289Z,4.63
2023-01-25T19:21:26.904Z,4.67
2023-01-25T19:23:57.526Z,4.70
2023-01-25T19:26:26.730Z,4.73
2023-01-25T19:28:56.437Z,4.75
2023-01-25T19:31:26.873Z,4.78
2023-01-25T19:33:58.516Z,4.81
2023-01-25T19:36:28.756Z,4.82
2023-01-25T19:39:00.497Z,4.79
2023-01-25T19:41:31.133Z,4.78
2023-01-25T19:44:02.225Z,4.77
2023-01-25T19:46:34.078Z,4.66
2023-01-25T19:49:05.350Z,4.74
2023-01-25T19:51:41.526Z,4.72
2023-01-25T19:54:16.095Z,4.69
2023-01-25T19:56:47.118Z,4.62
2023-01-25T19:59:18.942Z,4.59
2023-01-25T20:01:48.213Z,4.54
2023-01-25T20:04:23.033Z,4.49
2023-01-25T20:06:52.809Z,4.43
2023-01-25T20:09:29.848Z,4.41
2023-01-25T20:11:58.471Z,4.36
2023-01-25T20:14:27.582Z,4.31
2023-01-25T20:16:56.511Z,4.22
2023-01-25T20:19:26.487Z,4.20
2023-01-25T20:21:55.226Z,4.21
2023-01-25T20:24:24.563Z,4.16
2023-01-25T20:26:54.965Z,4.16
2023-01-25T20:29:25.935Z,4.15
2023-01-25T20:31:55.181Z,4.14
2023-01-25T20:34:24.973Z,4.15
2023-01-25T20:36:54.057Z,4.15
2023-01-25T20:39:23.148Z,4.14
2023-01-25T20:41:53.916Z,4.14
2023-01-25T20:44:22.953Z,4.15
2023-01-25T20:46:53.238Z,4.15
2023-01-25T20:49:22.984Z,4.16
2023-01-25T20:51:52.821Z,4.16
2023-01-25T20:54:22.429Z,4.17
2023-01-25T20:56:52.338Z,4.20
2023-01-25T20:59:21.917Z,4.21
2023-01-25T21:01:51.768Z,4.24
2023-01-25T21:04:21.080Z,4.25
2023-01-25T21:06:51.234Z,4.26
2023-01-25T21:09:22.938Z,4.30
2023-01-25T21:11:52.620Z,4.36
2023-01-25T21:14:22.477Z,4.38
2023-01-25T21:16:52.899Z,4.39
2023-01-25T21:19:22.087Z,4.40
2023-01-25T21:21:53.286Z,4.41
2023-01-25T21:24:22.379Z,4.45
2023-01-25T21:26:53.897Z,4.47
2023-01-25T21:29:22.968Z,4.47
2023-01-25T21:31:53.439Z,4.37
2023-01-25T21:34:23.035Z,4.44
2023-01-25T21:36:53.562Z,4.42
2023-01-25T21:39:23.433Z,4.47
2023-01-25T21:41:53.426Z,4.48
2023-01-25T21:44:41.433Z,4.50
2023-01-25T21:47:29.304Z,4.52
2023-01-25T21:50:18.343Z,4.56
2023-01-25T21:52:48.631Z,4.60
2023-01-25T21:55:18.027Z,4.62
2023-01-25T21:57:48.377Z,4.64
2023-01-25T22:00:17.865Z,4.66
2023-01-25T22:02:46.263Z,4.67
2023-01-25T22:05:17.006Z,4.68
2023-01-25T22:07:46.469Z,4.70
2023-01-25T22:10:15.565Z,4.72
2023-01-25T22:12:45.808Z,4.71
2023-01-25T22:15:14.264Z,4.74
2023-01-25T22:17:45.109Z,4.77
2023-01-25T22:20:13.583Z,4.79
2023-01-25T22:22:42.785Z,4.80
2023-01-25T22:25:11.485Z,4.83
2023-01-25T22:27:54.067Z,4.85
2023-01-25T22:30:22.873Z,4.88
2023-01-25T22:32:52.582Z,4.90
2023-01-25T22:35:20.955Z,4.90
2023-01-25T22:37:49.431Z,4.92
2023-01-25T22:40:18.248Z,4.94
2023-01-25T22:42:46.619Z,4.96
2023-01-25T22:45:15.095Z,4.95
2023-01-25T22:47:43.790Z,4.95
2023-01-25T22:50:12.443Z,4.95
2023-01-25T22:52:41.159Z,4.95
2023-01-25T22:55:09.932Z,4.94
2023-01-25T22:57:38.117Z,4.96
2023-01-25T23:00:09.873Z,4.96
2023-01-25T23:02:38.661Z,4.95
2023-01-25T23:05:08.047Z,4.96
2023-01-25T23:07:36.246Z,4.97
2023-01-25T23:10:05.268Z,4.97
2023-01-25T23:12:33.804Z,4.99
2023-01-25T23:15:07.218Z,5.01
2023-01-25T23:17:54.015Z,5.01
2023-01-25T23:20:22.288Z,5.01
2023-01-25T23:22:51.701Z,5.01
2023-01-25T23:25:19.940Z,5.02
2023-01-25T23:27:49.573Z,5.02
2023-01-25T23:30:18.436Z,5.02
2023-01-25T23:32:49.411Z,5.01
2023-01-25T23:35:19.628Z,5.01
2023-01-25T23:37:48.735Z,5.01
2023-01-25T23:40:17.308Z,5.01
2023-01-25T23:42:45.798Z,5.00
2023-01-25T23:45:14.176Z,5.00
2023-01-25T23:47:42.344Z,5.01
2023-01-25T23:50:11.534Z,4.93
2023-01-25T23:52:40.026Z,4.99
2023-01-25T23:55:09.239Z,4.99
2023-01-25T23:57:37.599Z,4.98
